Terminal Aerodrome Forecast
Issued by NWS Wilmington, NC

Home | Current Version | Previous Version | Text Only | Print | Product List | Glossary On
Versions: 1 2 3 4 5 6 7 8 9 10 11 12
000
FTUS42 KILM 201100
TAFLBT
TAF
KLBT 201136Z 2012/2112 06005KT 6SM -RA BR SCT040 OVC080
     FM201800 05006KT 6SM BR SCT012 BKN025 OVC040
      TEMPO 2018/2021 04007KT 4SM -RA BR BKN012 OVC020
     FM210800 04005KT 5SM BR BKN025 OVC070=

USA.gov is the U.S. government's official web portal to all federal, state and local government web resources and services.